WetterOnline ( http://www.wetteronline.de )

Wetter aktuell Leck

Aktuelles Wetter: Leck (17m)

6-stündlich | Neueste Meldungen
Ortszeit Temperatur Wetter
Mo, 11.12. 19:00 -0.1° C Schneefall
Mo, 11.12. 13:00 -0.8° C bedeckt
Mo, 11.12. 7:00 -1.6° C wolkenlos
Mo, 11.12. 1:00 -0.2° C bedeckt
Ortszeit Temperatur Wetter
Mo, 11.12. 19:30 -0.1° C leichter Schneefall
Mo, 11.12. 19:00 -0.1° C Schneefall
Mo, 11.12. 18:30 -0.1° C Schneefall
Mo, 11.12. 18:00 0.1° C leichter Schneefall
Mo, 11.12. 17:30 1.0° C bedeckt
Mo, 11.12. 17:00 0.9° C wolkig
Ortszeit Relative Feuchte Sichtweite
Mo, 11.12. 19:00 100% 0.5 km
Mo, 11.12. 13:00 90% 12 km
Mo, 11.12. 7:00 93% 23 km
Mo, 11.12. 1:00 88% 40 km
Ortszeit Relative Feuchte Sichtweite
Mo, 11.12. 19:30 100% 1.0 km
Mo, 11.12. 19:00 100% 0.5 km
Mo, 11.12. 18:30 99% 0.7 km
Mo, 11.12. 18:00 93% 2.0 km
Mo, 11.12. 17:30 83% 5.0 km
Mo, 11.12. 17:00 83% 21 km
Ortszeit Niederschlagsmenge Niederschlagsart
Mo, 11.12. 19:00 0.8 l/m2 in 12 Std. -
Mo, 11.12. 13:00 0.0 l/m2 in 6 Std. -
Mo, 11.12. 7:00 0.1 l/m2 in 12 Std. -
Mo, 11.12. 1:00 0.1 l/m2 in 6 Std. -
Ortszeit Niederschlagsmenge Niederschlagsart
Mo, 11.12. 19:30 keine Meldung -
Mo, 11.12. 19:00 0.8 l/m2 in 1 Std. -
Mo, 11.12. 18:30 keine Meldung -
Mo, 11.12. 18:00 0.1 l/m2 in 1 Std. -
Mo, 11.12. 17:30 keine Meldung -
Mo, 11.12. 17:00 0.0 l/m2 in 1 Std. -
Ortszeit Stärke Spitze Richtung
km/h Bft. km/h Grad Sektor
Mo, 11.12. 19:00 17 3 33 - -
Mo, 11.12. 13:00 11 2 28 - -
Mo, 11.12. 7:00 7 2 22 - -
Mo, 11.12. 1:00 11 2 29 - -
Ortszeit Stärke Spitze Richtung
km/h Bft. km/h Grad Sektor
Mo, 11.12. 19:30 17 3 24 - -
Mo, 11.12. 19:00 17 3 28 - -
Mo, 11.12. 18:30 14 3 22 - -
Mo, 11.12. 18:00 13 3 33 - -
Mo, 11.12. 17:30 22 4 32 - -
Mo, 11.12. 17:00 19 3 26 - -
Ortszeit Untergrenze Bedeckung Gattung
total tief tief mittel hoch
Mo, 11.12. 19:00 30 m 7/8 7/8 - - -
Mo, 11.12. 13:00 3600 m 8/8 8/8 - - -
Mo, 11.12. 7:00 - 0/8 0/8 - - -
Mo, 11.12. 1:00 600 m 8/8 8/8 - - -
Ortszeit Bedeckungsgrad in Achtel und Wolkenuntergrenze
Mo, 11.12. 19:30 6(120m) 8(210m)
Mo, 11.12. 19:00 2(30m) 7(150m)
Mo, 11.12. 18:30 1(150m) 7(330m)
Mo, 11.12. 18:00 1(390m) 6(990m) 7(1500m)
Mo, 11.12. 17:30 9 9 9
Mo, 11.12. 17:00 1(1050m) 5(1380m) 6(1500m)
Ortszeit Luftdruck NN (hPa) Tendenz (hPa in 3 Std.)
Mo, 11.12. 19:00 987 + 0,7
Mo, 11.12. 13:00 988 + 0,7
Mo, 11.12. 7:00 987 + 4,1
Mo, 11.12. 1:00 980 + 0,5
Ortszeit Luftdruck NN (hPa) Tendenz (hPa in 3 Std.)
Mo, 11.12. 19:30 987 + 0,4
Mo, 11.12. 19:00 987 + 0,7
Mo, 11.12. 18:30 987 - 0,2
Mo, 11.12. 18:00 987 + 0,2
Mo, 11.12. 17:30 986 - 1,2
Mo, 11.12. 17:00 986 - 1,6
Ortszeit Schneehöhe (cm)
Mo, 11.12. 19:00 2
Mo, 11.12. 13:00 0
Mo, 11.12. 7:00 0
Mo, 11.12. 1:00 0
Ortszeit Schneehöhe (cm)
Mo, 11.12. 19:30 2
Mo, 11.12. 19:00 2
Mo, 11.12. 18:30 0
Mo, 11.12. 18:00 0
Mo, 11.12. 17:30 0
Mo, 11.12. 17:00 0
Link zu dieser Seite / Seite empfehlen

Das Wetter in ...